Página principal
METAR-TAF:

METAR-TAF

Aeroportos :

Aeroporto Internacional de Mehrabad

Teerã, Irão

latitude: 35-41N, longitude: 051-21E, altura: 1204 m

Observação actual do tempo

O boletim foi feito há 15 minutos, às 19:30 UTC
Vento 4 kt de nor-noroeste
Temperatura 9°C
Humidade 66%
Pressão 1019 hPa
Visibilidade: 8000 m
Poucas nuvensa uma altura de 3500 ft
Nuvens dispersasa uma altura de 19000 ft

METAR: OIII 201930Z 33004KT 8000 FEW035 SCT190 09/03 Q1019 A3010

Hora: 23:15 (19:45 UTC)

Previsão

O boletim foi feito há 2 horas e 5 minutos, às 17:40 UTC
Previsão válida de 20 às 18 UTC a 21 às 24 UTC
Vento 10 kt de oeste
Visibilidade: 8000 m
Poucas nuvensa uma altura de 3500 ft
Nuvens fragmentadasa uma altura de 10000 ft
Tornando-se
de 21 às 02 UTC a 21 às 04 UTC
Visibilidade: 4000 m
Poucas nuvensa uma altura de 3500 ft
bruma
Tornando-se
de 21 às 07 UTC a 21 às 09 UTC
Visibilidade: 7000 m

TAF: OIII 201740Z 2018/2124 27005MPS 8000 FEW035 BKN100 BECMG 2102/2104 4000 HZ FEW035 BECMG 2107/2109 7000

Observações e previsões do tempo de mais de 4000 aeroportos (mensagens METAR e TAF).

As estações disponíveis são os pontos amarelos e vermelhos sobre o mapa.

Mova o rato sobre o mapa para ver o nome da estação.

Depois clique no ponto para visualizar as observações e previsões meteorológicas.

Para alterar o mapa : clique nos botões verdes com uma cruz preta para aumentar o zoom; no botão verde com uma pitada de zoom; ou nas setas verdes para mapas adjacentes.


METAR-TAF: